Time;durP1;ratioP1;P1;durP2;ratioP2;P2;SDS_P1;SDS_P2;PMS_P1;PMS_P2;Temp;Humidity;BMP_temperature;BMP_pressure;BME280_temperature;BME280_humidity;BME280_pressure;Samples;Min_cycle;Max_cycle;Signal;HPM_P1;HPM_P2
2021/12/02 00:00:53;;;;;;;1.58;1.23;;;5.60;99.90;;;;;;4986899;28;20042;-71
2021/12/02 00:03:18;;;;;;;2.65;1.02;;;5.60;99.90;;;;;;4986764;28;20042;-70
2021/12/02 00:05:44;;;;;;;5.05;1.40;;;5.60;99.90;;;;;;4986929;28;20457;-70
2021/12/02 00:08:10;;;;;;;0.90;0.90;;;5.60;99.90;;;;;;4985729;28;20053;-70
2021/12/02 00:10:36;;;;;;;1.40;1.30;;;5.60;99.90;;;;;;5009878;28;1076065;-70
2021/12/02 00:13:03;;;;;;;1.20;1.10;;;5.60;99.90;;;;;;4986632;28;20034;-70
2021/12/02 00:15:35;;;;;;;2.42;1.40;;;5.60;99.90;;;;;;4987249;28;20083;-70
2021/12/02 00:18:30;;;;;;;4.38;1.50;;;5.50;99.90;;;;;;4986489;28;20030;-71
2021/12/02 00:21:09;;;;;;;3.15;1.17;;;5.50;99.90;;;;;;4987259;28;20075;-70
2021/12/02 00:24:00;;;;;;;3.45;1.35;;;5.50;99.90;;;;;;4987503;28;20505;-70
2021/12/02 00:26:27;;;;;;;1.95;1.10;;;5.50;99.90;;;;;;4986067;28;20034;-70
2021/12/02 00:28:55;;;;;;;2.05;1.40;;;5.40;99.90;;;;;;4979836;28;20030;-70
2021/12/02 00:31:23;;;;;;;2.42;1.17;;;5.40;99.90;;;;;;5047796;28;20022;-70
2021/12/02 00:33:52;;;;;;;1.55;1.30;;;5.40;99.90;;;;;;5053879;28;20103;-71
2021/12/02 00:36:20;;;;;;;1.75;1.33;;;5.40;99.90;;;;;;4982464;28;20372;-69
2021/12/02 00:38:47;;;;;;;1.50;1.40;;;5.30;99.90;;;;;;4971824;28;20412;-70
2021/12/02 00:41:17;;;;;;;1.77;1.20;;;5.30;99.90;;;;;;5044408;28;20063;-69
2021/12/02 00:43:44;;;;;;;1.35;1.25;;;5.30;99.90;;;;;;5029964;28;20069;-70
2021/12/02 00:46:13;;;;;;;2.17;1.00;;;5.20;99.90;;;;;;4987430;28;20034;-70
2021/12/02 00:48:40;;;;;;;1.88;1.25;;;5.30;99.90;;;;;;4989569;28;20035;-70
2021/12/02 00:51:06;;;;;;;3.15;1.13;;;5.30;99.90;;;;;;4990403;28;20022;-70
2021/12/02 00:53:34;;;;;;;2.85;1.20;;;5.20;99.90;;;;;;4990490;28;20030;-70
2021/12/02 00:56:03;;;;;;;1.67;1.08;;;5.20;99.90;;;;;;4989616;28;20022;-70
2021/12/02 00:58:30;;;;;;;1.83;1.10;;;5.20;99.90;;;;;;5056994;28;20130;-70
2021/12/02 01:00:57;;;;;;;2.55;1.20;;;5.20;99.90;;;;;;4990571;28;20029;-70
2021/12/02 01:03:24;;;;;;;2.20;1.15;;;5.20;99.90;;;;;;5057472;28;20038;-70
2021/12/02 01:05:51;;;;;;;1.67;0.85;;;5.20;99.90;;;;;;5057950;28;20075;-70
2021/12/02 01:08:17;;;;;;;1.80;1.23;;;5.30;99.90;;;;;;5056451;28;20026;-70
2021/12/02 01:10:43;;;;;;;2.70;1.00;;;5.20;99.90;;;;;;5050611;28;20091;-69
2021/12/02 01:13:09;;;;;;;2.60;1.10;;;5.30;99.90;;;;;;5050830;28;20030;-71
2021/12/02 01:15:35;;;;;;;1.42;1.10;;;5.20;99.90;;;;;;4990420;28;20111;-70
2021/12/02 01:18:00;;;;;;;2.30;1.17;;;5.30;99.90;;;;;;4989360;28;20014;-70
2021/12/02 01:20:29;;;;;;;2.80;1.00;;;5.30;99.90;;;;;;4990172;28;20080;-70
2021/12/02 01:22:58;;;;;;;2.28;1.20;;;5.20;99.90;;;;;;4990153;28;20015;-70
2021/12/02 01:25:24;;;;;;;1.55;0.95;;;5.20;99.90;;;;;;4987689;28;20053;-70
2021/12/02 01:27:51;;;;;;;2.20;1.50;;;5.20;99.90;;;;;;4976288;28;20026;-70
2021/12/02 01:30:18;;;;;;;3.35;1.38;;;5.20;99.90;;;;;;4989799;28;20044;-70
2021/12/02 01:32:47;;;;;;;2.70;1.10;;;5.30;99.90;;;;;;5057393;28;20425;-68
2021/12/02 01:35:15;;;;;;;1.02;1.02;;;5.30;99.90;;;;;;5057149;28;20030;-70
2021/12/02 01:37:41;;;;;;;1.60;1.10;;;5.30;99.90;;;;;;4971190;28;20479;-70
2021/12/02 01:40:08;;;;;;;1.70;1.30;;;5.30;99.90;;;;;;4971875;28;20499;-71
2021/12/02 01:45:45;;;;;;;1.20;1.10;;;5.20;99.90;;;;;;5025337;28;20057;-70
2021/12/02 01:48:19;;;;;;;2.67;1.23;;;5.20;99.90;;;;;;5055917;28;20030;-70
2021/12/02 01:51:03;;;;;;;2.67;1.02;;;5.20;99.90;;;;;;5055691;28;20031;-70
2021/12/02 01:53:38;;;;;;;2.67;1.20;;;5.20;99.90;;;;;;5057696;28;20114;-70
2021/12/02 01:56:14;;;;;;;3.28;1.25;;;5.20;99.90;;;;;;5057345;28;20025;-70
2021/12/02 01:58:47;;;;;;;3.17;1.15;;;5.20;99.90;;;;;;5056796;28;20027;-70
2021/12/02 02:01:24;;;;;;;2.88;1.10;;;5.20;99.90;;;;;;5057804;28;20029;-70
2021/12/02 02:03:52;;;;;;;1.25;1.10;;;5.20;99.90;;;;;;5038298;28;20130;-70
2021/12/02 02:06:37;;;;;;;3.53;1.30;;;5.20;99.90;;;;;;4969683;28;20383;-70
2021/12/02 02:09:05;;;;;;;5.40;1.25;;;5.20;99.90;;;;;;4986281;28;20109;-70
2021/12/02 02:11:31;;;;;;;5.07;1.73;;;5.20;99.90;;;;;;5061015;28;20036;-70
2021/12/02 02:13:58;;;;;;;2.78;1.13;;;5.20;99.90;;;;;;5052561;28;20443;-70
2021/12/02 02:16:24;;;;;;;2.35;1.10;;;5.20;99.90;;;;;;4990066;28;20118;-70
2021/12/02 02:18:50;;;;;;;2.83;1.15;;;5.20;99.90;;;;;;5047808;28;20026;-70
2021/12/02 02:21:18;;;;;;;3.03;1.10;;;5.20;99.90;;;;;;5057170;28;20023;-71
2021/12/02 02:24:11;;;;;;;2.58;1.25;;;5.20;99.90;;;;;;5057554;28;20403;-70
2021/12/02 02:26:35;;;;;;;2.60;1.00;;;5.20;99.90;;;;;;4987184;28;20387;-70
2021/12/02 02:29:03;;;;;;;3.13;1.10;;;5.20;99.90;;;;;;4994115;28;20026;-70
2021/12/02 02:31:30;;;;;;;1.50;1.10;;;5.20;99.90;;;;;;5057441;28;20027;-71
2021/12/02 02:33:57;;;;;;;2.22;1.08;;;5.20;99.90;;;;;;5056779;28;20053;-70
2021/12/02 02:36:26;;;;;;;1.77;1.20;;;5.20;99.90;;;;;;4994311;28;20117;-70
2021/12/02 02:38:56;;;;;;;3.45;1.55;;;5.20;99.90;;;;;;5015947;28;20429;-71
2021/12/02 02:41:28;;;;;;;3.50;1.38;;;5.20;99.90;;;;;;5048188;28;20026;-70
2021/12/02 02:43:57;;;;;;;1.95;1.10;;;5.20;99.90;;;;;;5050215;28;20030;-71
2021/12/02 02:46:35;;;;;;;3.40;1.20;;;5.20;99.90;;;;;;5045339;28;20045;-70
2021/12/02 02:49:03;;;;;;;3.40;1.30;;;5.20;99.90;;;;;;5054889;28;20031;-70
2021/12/02 02:51:31;;;;;;;1.90;1.20;;;5.20;99.90;;;;;;5057140;28;20419;-70
2021/12/02 02:54:00;;;;;;;3.90;1.20;;;5.20;99.90;;;;;;5056522;28;20455;-70
2021/12/02 02:56:31;;;;;;;2.75;1.00;;;5.20;99.90;;;;;;5054189;28;20038;-70
2021/12/02 03:16:36;;;;;;;1.88;1.23;;;5.10;99.90;;;;;;4971572;28;20714;-70
2021/12/02 03:17:36;;;;;;;3.75;1.35;;;5.10;99.90;;;;;;4986904;28;20080;-70
2021/12/02 03:20:03;;;;;;;2.75;1.20;;;5.20;99.90;;;;;;5039294;28;20034;-70
2021/12/02 03:22:29;;;;;;;5.03;1.65;;;5.20;99.90;;;;;;5056609;28;20068;-70
2021/12/02 03:24:55;;;;;;;4.85;1.35;;;5.10;99.90;;;;;;5049084;28;20076;-70
2021/12/02 03:27:21;;;;;;;5.53;1.75;;;5.20;99.90;;;;;;5055391;28;20080;-71
2021/12/02 03:29:47;;;;;;;2.28;1.30;;;5.20;99.90;;;;;;5055843;28;20050;-70
2021/12/02 03:32:12;;;;;;;3.28;1.33;;;5.20;99.90;;;;;;5056161;28;20053;-71
2021/12/02 03:34:39;;;;;;;4.93;1.40;;;5.20;99.90;;;;;;5055825;28;20033;-71
2021/12/02 03:37:05;;;;;;;1.45;1.08;;;5.20;99.90;;;;;;5008950;28;20050;-70
2021/12/02 03:39:31;;;;;;;3.42;1.50;;;5.20;99.90;;;;;;5052623;28;20028;-70
2021/12/02 03:41:57;;;;;;;4.80;1.50;;;5.20;99.90;;;;;;5044032;28;20030;-71
2021/12/02 03:44:24;;;;;;;3.90;1.73;;;5.20;99.90;;;;;;5046318;28;20039;-70
2021/12/02 03:46:51;;;;;;;4.00;1.30;;;5.20;99.90;;;;;;4978842;28;20031;-70
2021/12/02 03:49:17;;;;;;;4.45;1.60;;;5.20;99.90;;;;;;4985142;28;20105;-70
2021/12/02 03:51:43;;;;;;;5.18;1.55;;;5.20;99.90;;;;;;5055901;28;20027;-71
2021/12/02 03:54:09;;;;;;;3.15;1.30;;;5.20;99.90;;;;;;5055133;28;20452;-70
2021/12/02 03:56:34;;;;;;;3.80;1.38;;;5.20;99.90;;;;;;5055880;28;20038;-71
2021/12/02 03:59:00;;;;;;;2.65;1.40;;;5.20;99.90;;;;;;5054678;28;20052;-70
2021/12/02 04:01:26;;;;;;;3.25;1.30;;;5.20;99.90;;;;;;5055834;28;20070;-70
2021/12/02 04:03:52;;;;;;;2.33;1.35;;;5.20;99.90;;;;;;5053109;28;20061;-70
2021/12/02 04:06:19;;;;;;;3.67;1.40;;;5.20;99.90;;;;;;4968368;28;20475;-71
2021/12/02 04:16:52;;;;;;;3.15;1.30;;;5.20;99.90;;;;;;4971175;28;20027;-70
2021/12/02 04:19:18;;;;;;;4.55;1.20;;;5.20;99.90;;;;;;5052086;28;20123;-71
2021/12/02 04:21:44;;;;;;;6.85;1.10;;;5.20;99.90;;;;;;5139435;22;20450;-67
2021/12/02 04:24:10;;;;;;;4.05;1.17;;;5.10;99.90;;;;;;5056654;28;20026;-69
2021/12/02 04:26:36;;;;;;;4.38;1.15;;;5.20;99.90;;;;;;5074366;28;20038;-66
2021/12/02 04:29:02;;;;;;;2.67;1.27;;;5.20;99.90;;;;;;5075105;28;20480;-66
2021/12/02 04:31:28;;;;;;;4.35;1.42;;;5.20;99.90;;;;;;5075641;28;20052;-66
2021/12/02 04:33:54;;;;;;;3.42;1.50;;;5.20;99.90;;;;;;5075715;28;20030;-66
2021/12/02 04:36:20;;;;;;;3.47;1.23;;;5.20;99.90;;;;;;5075124;28;20033;-66
2021/12/02 04:38:45;;;;;;;2.92;1.20;;;5.20;99.90;;;;;;5055053;28;20031;-68
2021/12/02 04:41:13;;;;;;;5.18;1.27;;;5.20;99.90;;;;;;5075302;28;20026;-67
2021/12/02 04:43:39;;;;;;;7.30;1.33;;;5.20;99.90;;;;;;5075636;28;20026;-69
2021/12/02 04:46:04;;;;;;;2.63;1.00;;;5.20;99.90;;;;;;5075214;28;20428;-67
2021/12/02 04:48:30;;;;;;;2.67;1.15;;;5.20;99.90;;;;;;5074915;28;20431;-66
2021/12/02 04:50:56;;;;;;;3.35;1.65;;;5.20;99.90;;;;;;5075210;28;20105;-67
2021/12/02 04:53:22;;;;;;;3.17;1.30;;;5.20;99.90;;;;;;5075741;28;20022;-68
2021/12/02 04:55:47;;;;;;;2.58;1.30;;;5.10;99.90;;;;;;5075459;28;20095;-70
2021/12/02 04:58:13;;;;;;;4.32;1.25;;;5.10;99.90;;;;;;5074255;28;20094;-68
2021/12/02 05:00:39;;;;;;;1.60;1.25;;;5.10;99.90;;;;;;5007859;28;20056;-68
2021/12/02 05:03:04;;;;;;;3.40;1.20;;;5.10;99.90;;;;;;5074771;28;20033;-68
2021/12/02 05:05:32;;;;;;;3.58;1.15;;;5.00;99.90;;;;;;5075512;28;20028;-68
2021/12/02 05:08:00;;;;;;;3.92;1.20;;;5.00;99.90;;;;;;5091853;28;20064;-70
2021/12/02 05:10:25;;;;;;;3.58;1.40;;;5.00;99.90;;;;;;5095383;28;20018;-67
2021/12/02 05:12:51;;;;;;;3.80;1.40;;;4.90;99.90;;;;;;5076502;28;20057;-67
2021/12/02 05:15:17;;;;;;;5.00;1.35;;;5.00;99.90;;;;;;5075149;28;20030;-66
2021/12/02 05:17:42;;;;;;;3.60;1.50;;;5.00;99.90;;;;;;5092778;28;20030;-68
2021/12/02 05:20:09;;;;;;;4.10;1.30;;;5.00;99.90;;;;;;5074944;28;20493;-67
2021/12/02 05:22:35;;;;;;;3.97;1.20;;;4.90;99.90;;;;;;5075434;28;20058;-68
2021/12/02 05:25:02;;;;;;;4.07;1.10;;;4.90;99.90;;;;;;5067917;28;20026;-67
2021/12/02 05:27:28;;;;;;;5.28;1.50;;;4.90;99.90;;;;;;5074758;28;20113;-68
2021/12/02 05:29:54;;;;;;;1.73;1.15;;;4.90;99.90;;;;;;5079545;28;20117;-70
2021/12/02 05:32:20;;;;;;;5.15;1.80;;;4.90;99.90;;;;;;5080822;28;20133;-68
2021/12/02 05:34:47;;;;;;;3.33;1.10;;;4.90;99.90;;;;;;5079304;28;20529;-68
2021/12/02 05:37:13;;;;;;;5.93;1.30;;;4.90;99.90;;;;;;5085112;28;20113;-69
2021/12/02 05:39:38;;;;;;;8.18;1.45;;;4.90;99.90;;;;;;5054537;28;20045;-68
2021/12/02 05:42:04;;;;;;;3.45;1.60;;;4.80;99.90;;;;;;5084581;28;20061;-67
2021/12/02 05:44:30;;;;;;;4.18;1.50;;;4.90;99.90;;;;;;5076198;28;20024;-68
2021/12/02 05:46:55;;;;;;;4.10;1.45;;;4.80;99.90;;;;;;5074985;28;20038;-70
2021/12/02 05:49:21;;;;;;;4.07;1.60;;;4.80;99.90;;;;;;5077011;28;20030;-68
2021/12/02 05:51:47;;;;;;;3.20;1.75;;;4.80;99.90;;;;;;5081748;28;20025;-67
2021/12/02 05:54:12;;;;;;;7.05;3.38;;;4.80;99.90;;;;;;5071079;28;20438;-62
2021/12/02 05:56:39;;;;;;;5.32;1.90;;;4.80;99.90;;;;;;5092964;28;20023;-67
2021/12/02 05:59:05;;;;;;;5.55;1.85;;;4.80;99.90;;;;;;5078207;28;20026;-68
2021/12/02 06:01:30;;;;;;;5.97;1.60;;;4.80;99.90;;;;;;5085924;28;20030;-66
2021/12/02 06:03:56;;;;;;;4.90;1.50;;;4.80;99.90;;;;;;5080060;28;20030;-67
2021/12/02 06:06:26;;;;;;;4.28;1.65;;;4.80;99.90;;;;;;5083718;28;20034;-66
2021/12/02 06:08:52;;;;;;;2.45;1.60;;;4.80;99.90;;;;;;5094448;28;20086;-66
2021/12/02 06:11:18;;;;;;;7.30;1.88;;;4.80;99.90;;;;;;5078822;28;20029;-66
2021/12/02 06:13:46;;;;;;;6.95;2.17;;;4.80;99.90;;;;;;5081018;28;20025;-67
2021/12/02 06:16:12;;;;;;;10.65;2.45;;;4.80;99.90;;;;;;5078837;28;20022;-67
2021/12/02 06:18:37;;;;;;;5.20;2.55;;;4.80;99.90;;;;;;5089359;28;20030;-68
2021/12/02 06:21:03;;;;;;;6.93;3.60;;;4.80;99.90;;;;;;5097586;28;20105;-67
2021/12/02 06:23:29;;;;;;;9.88;2.85;;;4.80;99.90;;;;;;5078235;28;20057;-67
2021/12/02 06:25:54;;;;;;;6.22;1.92;;;4.80;99.90;;;;;;5070503;28;20057;-67
2021/12/02 06:28:20;;;;;;;5.38;1.92;;;4.70;99.90;;;;;;5071872;28;20029;-67
2021/12/02 06:30:46;;;;;;;3.75;2.10;;;4.70;99.90;;;;;;5060324;28;20052;-69
2021/12/02 06:33:12;;;;;;;6.75;2.33;;;4.60;99.90;;;;;;5057461;28;20034;-66
2021/12/02 06:35:39;;;;;;;8.88;2.38;;;4.60;99.90;;;;;;5058625;28;20019;-69
2021/12/02 06:38:05;;;;;;;7.90;4.20;;;4.50;99.90;;;;;;5082155;28;20022;-67
2021/12/02 06:40:31;;;;;;;6.18;2.47;;;4.50;99.90;;;;;;5078162;28;20029;-67
2021/12/02 06:42:57;;;;;;;3.10;1.98;;;4.50;99.90;;;;;;5087420;28;20022;-66
2021/12/02 06:45:23;;;;;;;2.55;1.95;;;4.50;99.90;;;;;;5058017;28;20030;-67
2021/12/02 06:47:50;;;;;;;4.47;2.10;;;4.40;99.90;;;;;;5074320;28;20064;-66
2021/12/02 06:50:19;;;;;;;4.53;2.05;;;4.40;99.90;;;;;;5077690;28;20030;-66
2021/12/02 06:52:46;;;;;;;6.05;2.53;;;4.40;99.90;;;;;;5084037;28;20037;-67
2021/12/02 06:55:12;;;;;;;6.00;2.70;;;4.40;99.90;;;;;;5077785;28;20026;-67
2021/12/02 06:57:38;;;;;;;6.50;2.85;;;4.50;99.90;;;;;;5009202;28;20030;-66
2021/12/02 07:00:08;;;;;;;4.75;2.53;;;4.40;99.90;;;;;;5078071;28;20619;-66
2021/12/02 07:02:35;;;;;;;4.80;2.60;;;4.40;99.90;;;;;;5071357;28;20130;-66
2021/12/02 07:05:01;;;;;;;3.05;2.17;;;4.40;99.90;;;;;;5092739;28;20409;-67
2021/12/02 07:07:31;;;;;;;4.63;2.28;;;4.40;99.90;;;;;;5085871;28;20030;-67
2021/12/02 07:09:59;;;;;;;4.25;2.30;;;4.40;99.90;;;;;;5078766;28;20033;-68
2021/12/02 07:12:33;;;;;;;2.20;2.00;;;4.40;99.90;;;;;;5072346;28;20035;-68
2021/12/02 07:15:05;;;;;;;5.63;2.10;;;4.40;99.90;;;;;;5073236;28;20846;-69
2021/12/02 07:17:34;;;;;;;5.03;1.92;;;4.50;99.90;;;;;;5088639;28;20079;-66
2021/12/02 07:20:01;;;;;;;3.42;1.85;;;4.50;99.90;;;;;;5077490;28;20041;-67
2021/12/02 07:22:27;;;;;;;3.35;1.90;;;4.50;99.90;;;;;;5075941;28;20037;-67
2021/12/02 07:24:53;;;;;;;4.97;2.38;;;4.50;99.90;;;;;;5077305;28;20034;-69
2021/12/02 07:27:19;;;;;;;4.07;2.00;;;4.50;99.90;;;;;;5076679;28;20037;-66
2021/12/02 07:29:45;;;;;;;4.25;1.90;;;4.50;99.90;;;;;;5079219;28;20041;-66
2021/12/02 07:32:11;;;;;;;4.38;1.75;;;4.50;99.90;;;;;;5078830;28;20034;-65
2021/12/02 07:34:42;;;;;;;3.38;1.63;;;4.50;99.90;;;;;;5076725;28;20112;-66
2021/12/02 07:37:08;;;;;;;3.10;2.08;;;4.50;99.90;;;;;;5068013;28;20026;-69
2021/12/02 07:39:34;;;;;;;2.38;2.17;;;4.50;99.90;;;;;;5076326;28;20520;-67
2021/12/02 07:41:59;;;;;;;2.20;2.03;;;4.50;99.90;;;;;;5077184;28;20026;-67
2021/12/02 07:44:25;;;;;;;3.03;2.00;;;4.50;99.90;;;;;;5080286;28;20033;-70
2021/12/02 07:46:51;;;;;;;4.35;2.28;;;4.50;99.90;;;;;;5058224;28;20409;-67
2021/12/02 07:49:17;;;;;;;4.78;2.60;;;4.50;99.90;;;;;;5056432;28;20022;-67
2021/12/02 07:51:44;;;;;;;3.50;2.35;;;4.50;99.90;;;;;;5063408;28;20037;-67
2021/12/02 07:54:12;;;;;;;4.07;2.00;;;4.50;99.90;;;;;;5072149;28;20034;-67
2021/12/02 07:56:38;;;;;;;3.78;2.22;;;4.50;99.90;;;;;;5064976;28;20446;-68
2021/12/02 07:59:05;;;;;;;4.13;1.90;;;4.60;99.90;;;;;;5056651;28;20435;-69
2021/12/02 08:01:34;;;;;;;4.72;1.80;;;4.60;99.90;;;;;;5091362;28;20022;-66
2021/12/02 08:04:00;;;;;;;5.25;3.05;;;4.60;99.90;;;;;;5087897;28;20026;-66
2021/12/02 08:06:26;;;;;;;2.22;1.60;;;4.60;99.90;;;;;;5076279;28;20213;-67
2021/12/02 08:08:52;;;;;;;5.80;1.88;;;4.70;99.90;;;;;;5067606;28;20060;-68
2021/12/02 08:11:18;;;;;;;5.57;1.92;;;4.60;99.90;;;;;;5076523;28;20508;-66
2021/12/02 08:13:43;;;;;;;4.43;1.85;;;4.70;99.90;;;;;;5076139;28;20043;-67
2021/12/02 08:16:09;;;;;;;3.10;1.80;;;4.70;99.90;;;;;;5076409;28;20071;-67
2021/12/02 08:18:37;;;;;;;3.22;1.90;;;4.70;99.90;;;;;;5082139;28;20030;-67
2021/12/02 08:21:02;;;;;;;4.10;1.80;;;4.70;99.90;;;;;;5076516;28;20040;-69
2021/12/02 08:23:28;;;;;;;3.10;1.77;;;4.70;99.90;;;;;;5076768;28;20030;-67
2021/12/02 08:25:55;;;;;;;5.93;1.95;;;4.70;99.90;;;;;;5075978;28;20478;-67
2021/12/02 08:28:21;;;;;;;4.60;1.50;;;4.70;99.90;;;;;;5069814;28;20026;-67
2021/12/02 08:30:47;;;;;;;4.13;1.63;;;4.70;99.90;;;;;;5069824;28;20125;-67
2021/12/02 08:33:14;;;;;;;3.95;2.00;;;4.70;99.90;;;;;;5059792;28;20048;-67
2021/12/02 08:35:40;;;;;;;3.97;1.63;;;4.70;99.90;;;;;;5093836;28;20687;-67
2021/12/02 08:38:13;;;;;;;4.45;1.63;;;4.80;99.90;;;;;;5076668;28;20076;-67
2021/12/02 08:40:40;;;;;;;3.88;1.80;;;4.80;99.90;;;;;;5076594;28;20026;-67
2021/12/02 08:43:11;;;;;;;4.35;2.30;;;4.80;99.90;;;;;;5080534;28;20029;-67
2021/12/02 08:45:38;;;;;;;2.85;1.77;;;4.80;99.90;;;;;;5079646;28;20034;-66
2021/12/02 08:48:05;;;;;;;3.67;1.70;;;4.80;99.90;;;;;;5078904;28;20033;-67
2021/12/02 08:50:32;;;;;;;2.05;1.67;;;4.80;99.90;;;;;;5095986;28;20116;-67
2021/12/02 08:52:59;;;;;;;1.98;1.48;;;4.80;99.90;;;;;;5075806;28;20026;-67
2021/12/02 08:55:26;;;;;;;4.78;1.48;;;4.90;99.90;;;;;;5087048;28;20033;-68
2021/12/02 08:57:53;;;;;;;2.05;1.35;;;4.90;99.90;;;;;;5078922;28;20616;-67
2021/12/02 09:00:21;;;;;;;4.30;1.33;;;4.90;99.90;;;;;;5090613;28;20113;-67
2021/12/02 09:02:47;;;;;;;3.58;1.40;;;4.90;99.90;;;;;;5088659;28;20032;-67
2021/12/02 09:05:14;;;;;;;3.75;1.52;;;4.90;99.90;;;;;;5079506;28;20037;-66
2021/12/02 09:07:40;;;;;;;1.88;1.30;;;4.90;99.90;;;;;;5080426;28;20034;-66
2021/12/02 09:10:08;;;;;;;3.17;1.85;;;4.90;99.90;;;;;;5080177;28;20065;-66
2021/12/02 09:12:34;;;;;;;1.50;1.40;;;4.90;99.90;;;;;;5064778;28;20539;-67
2021/12/02 09:15:00;;;;;;;2.63;1.40;;;4.90;99.90;;;;;;5067972;28;20113;-67
2021/12/02 09:17:26;;;;;;;2.47;1.40;;;4.90;99.90;;;;;;5059191;28;20018;-66
2021/12/02 09:19:52;;;;;;;2.17;1.40;;;4.80;99.90;;;;;;5086149;28;20021;-67
2021/12/02 09:22:18;;;;;;;1.38;1.27;;;4.80;99.90;;;;;;5084691;28;20113;-68
2021/12/02 09:24:43;;;;;;;3.25;1.42;;;4.80;99.90;;;;;;5051943;28;20061;-68
2021/12/02 09:27:10;;;;;;;3.60;1.75;;;4.80;99.90;;;;;;5078859;28;20026;-68
2021/12/02 09:29:36;;;;;;;1.73;1.40;;;4.80;99.90;;;;;;5088908;28;20037;-68
2021/12/02 09:32:03;;;;;;;2.58;1.48;;;4.80;99.90;;;;;;5100275;28;20389;-68
2021/12/02 09:34:29;;;;;;;1.58;1.45;;;4.70;99.90;;;;;;5090861;28;20523;-67
2021/12/02 09:36:56;;;;;;;2.45;1.67;;;4.70;99.90;;;;;;5079245;28;20026;-68
2021/12/02 09:39:29;;;;;;;1.77;1.60;;;4.70;99.90;;;;;;5095730;28;20090;-68
2021/12/02 09:41:55;;;;;;;1.50;1.40;;;4.70;99.90;;;;;;5085330;28;20026;-68
2021/12/02 09:44:21;;;;;;;4.80;1.63;;;4.70;99.90;;;;;;5080612;28;20041;-67
2021/12/02 09:46:47;;;;;;;2.83;1.83;;;4.70;99.90;;;;;;5090612;28;20037;-68
2021/12/02 09:49:14;;;;;;;2.03;1.80;;;4.70;99.90;;;;;;5092220;28;20581;-69
2021/12/02 09:54:23;;;;;;;1.70;1.60;;;4.60;99.90;;;;;;5011236;28;20091;-68
2021/12/02 09:56:52;;;;;;;8.18;4.97;;;4.60;99.90;;;;;;5079311;28;20053;-67
2021/12/02 09:59:47;;;;;;;3.10;1.75;;;4.60;99.90;;;;;;5083129;28;20536;-68
2021/12/02 10:02:09;;;;;;;2.08;1.77;;;4.60;99.90;;;;;;5022001;27;20038;-68
2021/12/02 10:04:43;;;;;;;2.05;1.83;;;4.60;99.90;;;;;;5082504;28;20030;-68
2021/12/02 10:07:20;;;;;;;2.15;1.70;;;4.50;99.90;;;;;;5078480;28;20033;-68
2021/12/02 10:12:48;;;;;;;2.50;1.70;;;4.50;99.90;;;;;;5010466;28;20535;-68
2021/12/02 10:15:16;;;;;;;3.72;1.35;;;4.60;99.90;;;;;;5035480;28;20402;-68
2021/12/02 10:17:46;;;;;;;0.80;0.80;;;4.50;99.90;;;;;;5067282;28;20029;-67
2021/12/02 10:23:21;;;;;;;0.50;0.50;;;4.40;99.90;;;;;;5003505;28;20087;-68
2021/12/02 10:25:58;;;;;;;1.00;0.50;;;4.30;99.90;;;;;;5134909;22;20057;-71
2021/12/02 10:28:26;;;;;;;0.57;0.50;;;4.20;99.90;;;;;;5087608;28;20021;-70
2021/12/02 10:30:54;;;;;;;3.30;0.60;;;4.10;99.90;;;;;;5076711;28;20478;-71
2021/12/02 10:33:35;;;;;;;0.60;0.60;;;4.00;99.90;;;;;;5089521;28;20465;-70
2021/12/02 10:36:06;;;;;;;0.55;0.45;;;3.90;99.90;;;;;;5076712;28;20425;-69
2021/12/02 10:38:40;;;;;;;0.30;0.30;;;3.80;99.90;;;;;;5077792;28;20086;-70
2021/12/02 10:41:11;;;;;;;1.15;0.40;;;3.70;99.90;;;;;;5078491;28;20442;-70
2021/12/02 10:44:08;;;;;;;0.43;0.40;;;3.70;99.90;;;;;;5078055;28;20125;-70
2021/12/02 10:46:36;;;;;;;0.60;0.60;;;3.50;99.90;;;;;;5078027;28;20034;-70
2021/12/02 10:49:04;;;;;;;0.60;0.60;;;3.50;99.90;;;;;;5076857;28;20022;-69
2021/12/02 10:51:40;;;;;;;1.00;0.90;;;3.40;99.90;;;;;;5078226;28;20030;-70
2021/12/02 10:54:14;;;;;;;0.80;0.77;;;3.40;99.90;;;;;;5077426;28;20034;-70
2021/12/02 10:56:44;;;;;;;0.90;0.90;;;3.30;99.90;;;;;;5077379;28;20036;-70
2021/12/02 10:59:23;;;;;;;2.13;1.30;;;3.30;99.90;;;;;;5076739;28;20489;-70
2021/12/02 11:01:50;;;;;;;0.88;0.88;;;3.20;99.90;;;;;;5077495;28;20017;-71
2021/12/02 11:04:16;;;;;;;35.22;19.67;;;3.20;99.90;;;;;;5057257;28;20030;-71
2021/12/02 11:06:43;;;;;;;1.60;1.50;;;3.20;99.90;;;;;;5077591;28;20030;-70
2021/12/02 11:09:32;;;;;;;0.40;0.40;;;3.20;99.90;;;;;;5076433;28;20022;-71
2021/12/02 11:12:21;;;;;;;0.93;0.93;;;3.20;99.90;;;;;;5077083;28;20055;-70
2021/12/02 11:15:04;;;;;;;1.52;1.42;;;3.20;99.90;;;;;;5076944;28;20034;-70
2021/12/02 11:17:33;;;;;;;2.88;2.78;;;3.30;99.90;;;;;;5075458;28;20503;-69
2021/12/02 11:20:03;;;;;;;1.83;1.73;;;3.30;99.90;;;;;;5071884;28;20033;-70
2021/12/02 11:22:29;;;;;;;6.20;5.25;;;3.30;99.90;;;;;;5046249;28;20026;-70
2021/12/02 11:24:55;;;;;;;4.65;4.10;;;3.30;99.90;;;;;;5063456;28;20449;-69
2021/12/02 11:27:27;;;;;;;3.25;2.95;;;3.40;99.90;;;;;;5076166;28;20061;-69
2021/12/02 11:30:07;;;;;;;3.65;3.35;;;3.40;99.90;;;;;;5077187;28;20102;-69
2021/12/02 11:32:33;;;;;;;15.10;13.50;;;3.50;99.90;;;;;;5074451;28;20117;-70
2021/12/02 11:35:40;;;;;;;7.88;7.18;;;3.60;99.90;;;;;;5069456;28;20517;-70
2021/12/02 11:38:08;;;;;;;3.28;2.67;;;3.60;99.90;;;;;;5051323;28;20039;-70
2021/12/02 11:40:42;;;;;;;2.20;2.00;;;3.70;99.90;;;;;;5056957;28;20056;-70
2021/12/02 11:43:11;;;;;;;1.02;1.02;;;3.80;99.90;;;;;;5059470;28;20355;-70
2021/12/02 11:45:43;;;;;;;18.13;10.90;;;3.80;99.90;;;;;;5081051;28;20171;-70
2021/12/02 11:48:11;;;;;;;2.80;2.60;;;3.70;99.90;;;;;;5038634;28;20037;-69
2021/12/02 11:50:36;;;;;;;1.33;1.33;;;3.80;99.90;;;;;;5007590;28;20069;-70
2021/12/02 11:53:02;;;;;;;1.73;1.63;;;3.80;99.90;;;;;;5071246;28;20493;-70
2021/12/02 11:55:31;;;;;;;1.80;1.70;;;3.90;99.90;;;;;;5000378;28;20071;-70
2021/12/02 11:57:58;;;;;;;2.58;2.38;;;3.90;99.90;;;;;;5076049;28;20082;-69
2021/12/02 12:00:27;;;;;;;2.25;2.10;;;3.90;99.90;;;;;;5069298;28;20464;-70
2021/12/02 12:03:00;;;;;;;1.92;1.83;;;3.90;99.90;;;;;;5077892;28;20036;-70
2021/12/02 12:05:36;;;;;;;2.35;2.22;;;3.90;99.90;;;;;;5076865;28;20060;-70
2021/12/02 12:08:02;;;;;;;1.60;1.50;;;3.90;99.90;;;;;;5063618;28;20048;-69
2021/12/02 12:10:35;;;;;;;2.65;1.75;;;3.90;99.90;;;;;;5039535;28;20038;-69
2021/12/02 12:13:20;;;;;;;1.52;1.42;;;3.90;99.90;;;;;;5072293;28;20091;-69
2021/12/02 12:16:00;;;;;;;2.53;2.05;;;3.90;99.90;;;;;;5074523;28;20107;-70
2021/12/02 12:18:25;;;;;;;1.95;1.85;;;3.90;99.90;;;;;;5056659;28;20106;-70
2021/12/02 12:20:59;;;;;;;3.88;1.70;;;3.90;99.90;;;;;;5070688;28;20041;-70
2021/12/02 12:23:38;;;;;;;2.42;1.77;;;3.90;99.90;;;;;;5073561;28;20083;-69
2021/12/02 12:26:16;;;;;;;2.35;1.70;;;3.90;99.90;;;;;;5072856;28;20034;-69
2021/12/02 12:29:07;;;;;;;1.80;1.70;;;3.90;99.90;;;;;;5071618;28;20030;-69
2021/12/02 12:32:05;;;;;;;2.15;1.70;;;3.90;99.90;;;;;;5067852;28;20462;-70
2021/12/02 12:34:33;;;;;;;1.70;1.45;;;4.00;99.90;;;;;;5072145;28;20033;-69
2021/12/02 12:37:02;;;;;;;1.67;1.50;;;4.00;99.90;;;;;;5072675;28;20075;-70
2021/12/02 12:39:31;;;;;;;3.28;2.25;;;4.00;99.90;;;;;;5072282;28;20032;-69
2021/12/02 12:42:12;;;;;;;3.58;1.67;;;4.00;99.90;;;;;;5071393;28;20572;-70
2021/12/02 12:44:54;;;;;;;2.38;1.73;;;4.00;99.90;;;;;;5072598;28;20134;-69
2021/12/02 12:47:39;;;;;;;2.40;1.90;;;4.10;99.90;;;;;;5067514;28;20490;-70
2021/12/02 12:50:42;;;;;;;2.22;1.60;;;4.10;99.90;;;;;;5063273;28;20370;-69
2021/12/02 12:53:18;;;;;;;;;;;4.20;99.90;;;;;;5067181;28;20053;-69
2021/12/02 12:55:49;;;;;;;1.60;1.50;;;4.20;99.90;;;;;;5067912;28;20342;-70
2021/12/02 12:58:16;;;;;;;2.00;1.67;;;4.30;99.90;;;;;;5072398;28;20061;-69
2021/12/02 13:00:44;;;;;;;1.85;1.50;;;4.20;99.90;;;;;;5072523;28;20113;-69
2021/12/02 13:03:19;;;;;;;1.92;1.60;;;4.30;99.90;;;;;;5072999;28;20026;-69
2021/12/02 13:06:00;;;;;;;2.17;1.38;;;4.20;99.90;;;;;;5069916;28;20738;-70
2021/12/02 13:08:35;;;;;;;3.08;1.40;;;4.20;99.90;;;;;;5069323;28;20033;-70
2021/12/02 13:11:10;;;;;;;1.88;1.50;;;4.20;99.90;;;;;;5069773;28;20033;-70
2021/12/02 13:13:37;;;;;;;5.00;1.60;;;4.20;99.90;;;;;;5069753;28;20042;-69
2021/12/02 13:16:30;;;;;;;2.63;1.90;;;4.20;99.90;;;;;;5002497;28;20392;-70
2021/12/02 13:18:59;;;;;;;2.80;1.50;;;4.20;99.90;;;;;;5068915;28;20048;-69
2021/12/02 13:21:32;;;;;;;2.40;1.80;;;4.30;99.90;;;;;;5072194;28;20132;-70
2021/12/02 13:24:16;;;;;;;3.28;1.50;;;4.30;99.90;;;;;;5070901;28;20033;-70
2021/12/02 13:26:46;;;;;;;4.80;1.70;;;4.30;99.90;;;;;;5070206;28;20113;-69
2021/12/02 13:29:23;;;;;;;4.28;1.90;;;4.20;99.90;;;;;;5069176;28;20030;-69
2021/12/02 13:31:55;;;;;;;3.40;1.88;;;4.20;99.90;;;;;;5070407;28;20042;-70
2021/12/02 13:34:23;;;;;;;2.13;1.23;;;4.20;99.90;;;;;;5070288;28;20037;-69
2021/12/02 13:37:00;;;;;;;2.63;1.60;;;4.20;99.90;;;;;;5066641;28;20708;-69
2021/12/02 13:39:30;;;;;;;1.67;1.50;;;4.20;99.90;;;;;;5064968;28;20632;-69
2021/12/02 13:42:15;;;;;;;2.15;1.70;;;4.20;99.90;;;;;;5070658;28;20030;-70
2021/12/02 13:44:51;;;;;;;2.42;1.90;;;4.20;99.90;;;;;;5069915;28;20034;-70